createdAt,value
2022-11-27T00:03:53.297Z,0.18
2022-11-27T00:08:59.889Z,-0.03
2022-11-27T00:14:01.731Z,-0.27
2022-11-27T00:19:03.472Z,-0.32
2022-11-27T00:24:07.338Z,-0.18
2022-11-27T00:29:09.705Z,-0.33
2022-11-27T00:34:11.390Z,-0.54
2022-11-27T00:39:12.997Z,-0.75
2022-11-27T00:44:14.629Z,-0.91
2022-11-27T00:49:16.701Z,-0.97
2022-11-27T00:54:21.769Z,-0.91
2022-11-27T00:59:24.409Z,-0.88
2022-11-27T01:04:26.071Z,-0.91
2022-11-27T01:09:27.676Z,-0.96
2022-11-27T01:14:29.415Z,-1.02
2022-11-27T01:19:31.020Z,-1.07
2022-11-27T01:24:32.642Z,-0.94
2022-11-27T01:29:34.216Z,-1.00
2022-11-27T01:34:35.836Z,-1.17
2022-11-27T01:39:37.462Z,-1.15
2022-11-27T01:44:51.645Z,-1.18
2022-11-27T01:49:56.385Z,-1.21
2022-11-27T01:55:12.551Z,-1.38
2022-11-27T02:00:15.746Z,-1.35
2022-11-27T02:05:21.169Z,-1.35
2022-11-27T02:10:54.814Z,-1.36
2022-11-27T02:16:04.864Z,-1.50
2022-11-27T02:21:29.390Z,-1.53
2022-11-27T02:26:58.315Z,-1.43
2022-11-27T02:32:12.475Z,-1.49
2022-11-27T02:37:22.926Z,-1.60
2022-11-27T02:42:28.593Z,-1.72
2022-11-27T02:47:31.866Z,-1.77
2022-11-27T02:52:33.617Z,-1.82
2022-11-27T02:57:38.295Z,-1.88
2022-11-27T03:02:46.176Z,-1.88
2022-11-27T03:07:54.314Z,-1.92
2022-11-27T03:12:56.115Z,-1.94
2022-11-27T03:18:11.514Z,-2.01
2022-11-27T03:23:13.166Z,-1.96
2022-11-27T03:28:15.972Z,-2.00
2022-11-27T03:33:18.491Z,-2.08
2022-11-27T03:38:20.298Z,-2.03
2022-11-27T03:43:33.158Z,-2.02
2022-11-27T03:48:59.112Z,-1.95
2022-11-27T03:54:08.376Z,-1.99
2022-11-27T03:59:31.294Z,-2.00
2022-11-27T04:04:32.884Z,-2.09
2022-11-27T04:09:34.441Z,-2.11
2022-11-27T04:14:36.102Z,-2.16
2022-11-27T04:19:37.712Z,-2.25
2022-11-27T04:24:39.519Z,-2.26
2022-11-27T04:29:41.332Z,-2.35
2022-11-27T04:34:43.101Z,-2.38
2022-11-27T04:39:44.784Z,-2.36
2022-11-27T04:44:46.354Z,-2.33
2022-11-27T04:49:47.994Z,-2.26
2022-11-27T04:54:49.601Z,-2.26
2022-11-27T04:59:51.213Z,-2.41
2022-11-27T05:04:52.862Z,-2.43
2022-11-27T05:09:54.476Z,-2.47
2022-11-27T05:14:56.833Z,-2.50
2022-11-27T05:20:00.283Z,-2.57
2022-11-27T05:25:01.880Z,-2.66
2022-11-27T05:30:04.056Z,-2.68
2022-11-27T05:35:06.083Z,-2.64
2022-11-27T05:40:08.235Z,-2.71
2022-11-27T05:45:10.236Z,-2.79
2022-11-27T05:50:11.878Z,-2.80
2022-11-27T05:55:13.554Z,-2.79
2022-11-27T06:00:15.779Z,-2.85
2022-11-27T06:05:23.425Z,-2.79
2022-11-27T06:10:25.001Z,-2.76
2022-11-27T06:15:26.639Z,-2.82
2022-11-27T06:20:28.335Z,-2.95
2022-11-27T06:25:29.899Z,-2.98
2022-11-27T06:30:31.487Z,-3.03
2022-11-27T06:35:33.131Z,-2.96
2022-11-27T06:40:34.685Z,-2.92
2022-11-27T06:45:36.267Z,-3.07
2022-11-27T06:50:37.884Z,-3.15
2022-11-27T06:55:39.494Z,-3.08
2022-11-27T07:00:41.333Z,-3.04
2022-11-27T07:05:42.911Z,-2.98
2022-11-27T07:10:44.563Z,-2.90
2022-11-27T07:15:46.138Z,-2.82
2022-11-27T07:20:56.564Z,-2.78
2022-11-27T07:25:59.126Z,-2.88
2022-11-27T07:31:00.770Z,-2.79
2022-11-27T07:36:05.489Z,-2.65
2022-11-27T07:41:07.297Z,-2.47
2022-11-27T07:46:14.679Z,-2.34
2022-11-27T07:51:19.769Z,-2.36
2022-11-27T07:56:21.581Z,-2.29
2022-11-27T08:01:23.348Z,-2.15
2022-11-27T08:06:26.944Z,-2.01
2022-11-27T08:11:32.808Z,-2.02
2022-11-27T08:16:36.182Z,-1.75
2022-11-27T08:21:37.959Z,-1.33
2022-11-27T08:26:39.576Z,-1.02
2022-11-27T08:31:41.268Z,-0.71
2022-11-27T08:36:43.004Z,-0.37
2022-11-27T08:41:44.556Z,-0.08
2022-11-27T08:46:50.633Z,0.21
2022-11-27T08:51:52.274Z,0.54
2022-11-27T08:56:53.875Z,0.86
2022-11-27T09:01:55.489Z,1.13
2022-11-27T09:06:58.614Z,1.51
2022-11-27T09:12:00.515Z,1.82
2022-11-27T09:17:02.219Z,2.12
2022-11-27T09:22:04.037Z,2.41
2022-11-27T09:27:05.595Z,2.72
2022-11-27T09:32:07.194Z,3.04
2022-11-27T09:37:09.206Z,3.38
2022-11-27T09:42:26.619Z,3.70
2022-11-27T09:47:41.665Z,3.86
2022-11-27T09:52:52.504Z,3.95
2022-11-27T09:58:13.065Z,4.11
2022-11-27T10:03:16.677Z,4.32
2022-11-27T10:08:31.745Z,4.51
2022-11-27T10:13:33.318Z,4.75
2022-11-27T10:18:50.600Z,4.92
2022-11-27T10:24:12.248Z,5.06
2022-11-27T10:29:36.864Z,5.31
2022-11-27T10:34:43.340Z,5.62
2022-11-27T10:39:50.383Z,6.38
2022-11-27T10:44:59.259Z,8.07
2022-11-27T10:50:01.160Z,9.45
2022-11-27T10:55:13.282Z,10.63
2022-11-27T11:00:23.128Z,11.76
2022-11-27T11:06:11.713Z,12.36
2022-11-27T11:10:58.397Z,13.10
2022-11-27T11:16:16.114Z,13.40
2022-11-27T11:21:33.093Z,11.15
2022-11-27T11:26:39.014Z,9.97
2022-11-27T11:31:41.528Z,9.94
2022-11-27T11:37:06.721Z,10.56
2022-11-27T11:42:10.516Z,10.43
2022-11-27T11:47:20.661Z,9.99
2022-11-27T11:52:40.918Z,9.64
2022-11-27T11:57:57.953Z,9.86
2022-11-27T12:03:02.655Z,10.34
2022-11-27T12:08:33.375Z,10.74
2022-11-27T12:13:47.120Z,12.88
2022-11-27T12:19:15.036Z,15.35
2022-11-27T12:24:28.631Z,15.78
2022-11-27T12:29:51.582Z,15.50
2022-11-27T12:35:18.178Z,16.50
2022-11-27T12:40:28.457Z,16.17
2022-11-27T12:45:49.664Z,13.45
2022-11-27T12:50:59.197Z,9.84
2022-11-27T12:56:20.513Z,9.06
2022-11-27T13:01:39.598Z,8.56
2022-11-27T13:07:27.050Z,8.20
2022-11-27T13:13:00.851Z,7.61
2022-11-27T13:18:21.238Z,7.36
2022-11-27T13:23:23.713Z,7.43
2022-11-27T13:28:38.708Z,7.37
2022-11-27T13:33:44.879Z,7.15
2022-11-27T13:38:53.251Z,7.07
2022-11-27T13:43:54.927Z,6.95
2022-11-27T13:49:03.100Z,6.83
2022-11-27T13:54:07.934Z,6.63
2022-11-27T13:59:19.913Z,6.41
2022-11-27T14:04:21.586Z,6.30
2022-11-27T14:09:34.886Z,6.13
2022-11-27T14:14:36.791Z,6.32
2022-11-27T14:19:45.275Z,6.61
2022-11-27T14:24:55.893Z,6.37
2022-11-27T14:29:57.469Z,6.12
2022-11-27T14:34:59.138Z,5.85
2022-11-27T14:40:00.725Z,5.44
2022-11-27T14:45:16.953Z,5.06
2022-11-27T14:50:21.027Z,4.62
2022-11-27T14:55:31.575Z,4.27
2022-11-27T15:00:36.202Z,3.95
2022-11-27T15:05:39.133Z,3.58
2022-11-27T15:10:41.734Z,3.20
2022-11-27T15:15:44.579Z,2.77
2022-11-27T15:20:46.742Z,2.42
2022-11-27T15:26:03.494Z,2.14
2022-11-27T15:31:31.003Z,1.87
2022-11-27T15:36:44.799Z,1.57
2022-11-27T15:42:00.629Z,1.34
2022-11-27T15:47:04.363Z,1.15
2022-11-27T15:52:06.333Z,1.33
2022-11-27T15:57:07.954Z,1.09
2022-11-27T16:02:16.065Z,1.01
2022-11-27T16:07:19.390Z,0.96
2022-11-27T16:12:21.064Z,0.99
2022-11-27T16:17:22.672Z,0.90
2022-11-27T16:22:24.289Z,0.83
2022-11-27T16:27:25.901Z,0.84
2022-11-27T16:32:27.500Z,0.83
2022-11-27T16:37:29.062Z,0.81
2022-11-27T16:42:31.059Z,0.80
2022-11-27T16:47:34.013Z,0.76
2022-11-27T16:52:36.286Z,0.81
2022-11-27T16:57:37.908Z,0.90
2022-11-27T17:02:39.563Z,0.96
2022-11-27T17:07:42.546Z,0.96
2022-11-27T17:12:44.237Z,0.97
2022-11-27T17:17:45.907Z,0.98
2022-11-27T17:22:47.677Z,0.85
2022-11-27T17:27:49.358Z,0.86
2022-11-27T17:32:51.572Z,1.01
2022-11-27T17:37:53.201Z,1.06
2022-11-27T17:42:54.796Z,0.95
2022-11-27T17:47:56.377Z,0.79
2022-11-27T17:52:58.152Z,0.80
2022-11-27T17:57:59.785Z,0.91
2022-11-27T18:03:07.133Z,1.05
2022-11-27T18:08:09.049Z,0.98
2022-11-27T18:13:10.744Z,1.03
2022-11-27T18:18:12.313Z,1.03
2022-11-27T18:23:15.156Z,1.17
2022-11-27T18:28:16.755Z,1.12
2022-11-27T18:33:18.345Z,1.02
2022-11-27T18:38:19.905Z,1.02
2022-11-27T18:43:21.768Z,0.92
2022-11-27T18:48:23.408Z,0.69
2022-11-27T18:53:25.019Z,0.55
2022-11-27T18:58:26.831Z,0.64
2022-11-27T19:03:28.808Z,0.41
2022-11-27T19:08:30.583Z,0.17
2022-11-27T19:13:33.063Z,0.08
2022-11-27T19:18:36.886Z,0.02
2022-11-27T19:23:39.475Z,0.00
2022-11-27T19:28:43.403Z,0.04
2022-11-27T19:33:50.231Z,0.07
2022-11-27T19:38:55.468Z,-0.04
2022-11-27T19:43:57.499Z,-0.14
2022-11-27T19:49:01.457Z,-0.04
2022-11-27T19:54:08.389Z,-0.17
2022-11-27T19:59:13.273Z,-0.38
2022-11-27T20:04:15.872Z,-0.39
2022-11-27T20:09:19.082Z,-0.38
2022-11-27T20:14:21.266Z,-0.49
2022-11-27T20:19:23.195Z,-0.60
2022-11-27T20:24:24.802Z,-0.59
2022-11-27T20:29:27.445Z,-0.68
2022-11-27T20:34:29.035Z,-0.47
2022-11-27T20:39:30.678Z,-0.63
2022-11-27T20:44:32.274Z,-0.75
2022-11-27T20:49:33.887Z,-0.96
2022-11-27T20:54:36.017Z,-0.71
2022-11-27T20:59:37.718Z,-0.78
2022-11-27T21:04:39.421Z,-0.46
2022-11-27T21:09:41.223Z,-0.50
2022-11-27T21:14:44.176Z,-0.50
2022-11-27T21:19:45.793Z,-0.42
2022-11-27T21:24:50.768Z,-0.48
2022-11-27T21:29:52.546Z,-0.41
2022-11-27T21:34:54.110Z,-0.49
2022-11-27T21:39:56.513Z,-0.62
2022-11-27T21:44:59.206Z,-0.44
2022-11-27T21:50:00.839Z,-0.43
2022-11-27T21:55:06.615Z,-0.37
2022-11-27T22:00:10.938Z,-0.38
2022-11-27T22:05:13.672Z,-0.36
2022-11-27T22:10:15.400Z,-0.46
2022-11-27T22:15:18.584Z,-0.51
2022-11-27T22:20:20.451Z,-0.62
2022-11-27T22:25:22.047Z,-0.55
2022-11-27T22:30:24.866Z,-0.32
2022-11-27T22:35:27.017Z,-0.29
2022-11-27T22:40:28.580Z,-0.18
2022-11-27T22:45:30.231Z,0.03
2022-11-27T22:50:32.240Z,0.23
2022-11-27T22:55:35.470Z,0.27
2022-11-27T23:00:37.297Z,0.40
2022-11-27T23:05:44.069Z,0.58
2022-11-27T23:10:49.788Z,0.77
2022-11-27T23:15:51.401Z,0.83
2022-11-27T23:20:53.024Z,0.78
2022-11-27T23:25:54.623Z,0.51
2022-11-27T23:31:15.582Z,0.53
2022-11-27T23:36:17.756Z,0.58
2022-11-27T23:41:22.776Z,0.58
2022-11-27T23:46:27.199Z,0.63
2022-11-27T23:51:32.038Z,0.59
2022-11-27T23:56:33.763Z,0.54
